Time,TemperatureF,DewpointF,PressureIn,WindDirection,WindDirectionDegrees,WindSpeedMPH,WindSpeedGustMPH,Humidity,HourlyPrecipIn,Conditions,Clouds,dailyrainin,SolarRadiationWatts/m^2,SoftwareType,DateUTC
2013-08-25 00:00:00,70.0,40.3,29.80,ESE,123,2.0,2.0,34,0.00,,,0.00,0,Wunderground v.1.15,2013-08-25 07:00:00,
2013-08-25 00:10:00,69.9,40.2,29.80,ESE,123,1.0,1.0,34,0.00,,,0.00,0,Wunderground v.1.15,2013-08-25 07:10:00,
2013-08-25 00:20:00,70.2,42.0,29.80,ESE,123,0.0,7.0,36,0.00,,,0.00,0,Wunderground v.1.15,2013-08-25 07:20:00,
2013-08-25 00:30:00,70.2,42.7,29.80,ESE,123,0.0,7.0,37,0.00,,,0.00,0,Wunderground v.1.15,2013-08-25 07:30:00,
2013-08-25 00:39:00,69.7,42.9,29.80,ESE,123,0.0,7.0,38,0.00,,,0.00,0,Wunderground v.1.15,2013-08-25 07:39:00,
2013-08-25 00:50:00,69.3,43.3,29.80,ESE,123,0.0,7.0,39,0.00,,,0.00,0,Wunderground v.1.15,2013-08-25 07:50:00,
2013-08-25 00:59:00,69.0,43.0,29.80,ESE,123,0.0,7.0,39,0.00,,,0.00,0,Wunderground v.1.15,2013-08-25 07:59:00,
2013-08-25 01:10:00,68.8,43.5,29.80,ESE,123,0.0,7.0,40,0.00,,,0.00,0,Wunderground v.1.15,2013-08-25 08:10:00,
2013-08-25 01:19:00,68.7,43.4,29.80,ESE,123,0.0,7.0,40,0.00,,,0.00,0,Wunderground v.1.15,2013-08-25 08:19:00,
2013-08-25 01:30:00,68.8,43.5,29.79,ESE,123,0.0,7.0,40,0.00,,,0.00,0,Wunderground v.1.15,2013-08-25 08:30:00,
2013-08-25 01:40:00,68.5,41.9,29.79,ESE,123,0.0,7.0,38,0.00,,,0.00,0,Wunderground v.1.15,2013-08-25 08:40:00,
2013-08-25 01:50:00,68.1,42.2,29.79,ESE,123,0.0,7.0,39,0.00,,,0.00,0,Wunderground v.1.15,2013-08-25 08:50:00,
2013-08-25 02:00:00,68.1,41.5,29.79,ESE,123,0.0,7.0,38,0.00,,,0.00,0,Wunderground v.1.15,2013-08-25 09:00:00,
2013-08-25 02:10:00,68.1,42.2,29.79,ESE,123,0.0,7.0,39,0.00,,,0.00,0,Wunderground v.1.15,2013-08-25 09:10:00,
2013-08-25 02:20:00,67.8,41.3,29.78,ESE,123,0.0,7.0,38,0.00,,,0.00,0,Wunderground v.1.15,2013-08-25 09:20:00,
2013-08-25 02:30:00,67.6,41.1,29.78,ESE,123,0.0,7.0,38,0.00,,,0.00,0,Wunderground v.1.15,2013-08-25 09:30:00,
2013-08-25 02:40:00,67.7,41.8,29.78,ESE,122,0.0,7.0,39,0.00,,,0.00,0,Wunderground v.1.15,2013-08-25 09:40:00,
2013-08-25 02:50:00,67.7,41.8,29.78,ESE,123,1.0,1.0,39,0.00,,,0.00,0,Wunderground v.1.15,2013-08-25 09:50:00,
2013-08-25 03:00:00,67.9,42.7,29.78,ESE,123,0.0,7.0,40,0.00,,,0.00,0,Wunderground v.1.15,2013-08-25 10:00:00,
2013-08-25 03:10:00,68.0,42.8,29.78,ESE,123,0.0,7.0,40,0.00,,,0.00,0,Wunderground v.1.15,2013-08-25 10:10:00,
2013-08-25 03:20:00,67.9,42.7,29.78,ESE,123,0.0,7.0,40,0.00,,,0.00,0,Wunderground v.1.15,2013-08-25 10:20:00,
2013-08-25 03:30:00,68.0,42.8,29.78,ESE,123,0.0,7.0,40,0.00,,,0.00,0,Wunderground v.1.15,2013-08-25 10:30:00,
2013-08-25 03:39:00,68.3,43.0,29.78,ESE,123,0.0,7.0,40,0.00,,,0.00,0,Wunderground v.1.15,2013-08-25 10:39:00,
2013-08-25 03:50:00,68.3,43.7,29.78,ESE,123,0.0,7.0,41,0.00,,,0.00,0,Wunderground v.1.15,2013-08-25 10:50:00,
2013-08-25 03:59:00,68.0,44.0,29.78,ESE,123,0.0,7.0,42,0.00,,,0.00,0,Wunderground v.1.15,2013-08-25 10:59:00,
2013-08-25 04:10:00,68.0,44.7,29.78,ESE,123,0.0,7.0,43,0.00,,,0.00,0,Wunderground v.1.15,2013-08-25 11:10:00,
2013-08-25 04:19:00,68.4,45.0,29.78,ESE,123,0.0,7.0,43,0.00,,,0.00,0,Wunderground v.1.15,2013-08-25 11:19:00,
2013-08-25 04:30:00,69.0,44.9,29.78,ESE,123,0.0,7.0,42,0.00,,,0.00,0,Wunderground v.1.15,2013-08-25 11:30:00,
2013-08-25 04:39:00,69.4,45.9,29.78,ESE,123,0.0,7.0,43,0.00,,,0.00,0,Wunderground v.1.15,2013-08-25 11:39:00,
2013-08-25 04:50:00,69.2,44.5,29.78,ESE,123,0.0,7.0,41,0.00,,,0.00,0,Wunderground v.1.15,2013-08-25 11:50:00,
2013-08-25 04:59:00,69.0,43.7,29.78,ESE,123,0.0,7.0,40,0.00,,,0.00,0,Wunderground v.1.15,2013-08-25 11:59:00,
2013-08-25 05:10:00,68.9,43.6,29.78,ESE,123,0.0,7.0,40,0.00,,,0.00,0,Wunderground v.1.15,2013-08-25 12:10:00,
2013-08-25 05:19:00,69.1,46.3,29.78,ESE,123,0.0,7.0,44,0.00,,,0.00,0,Wunderground v.1.15,2013-08-25 12:19:00,
2013-08-25 05:30:00,69.2,49.2,29.79,ESE,123,0.0,7.0,49,0.00,,,0.00,0,Wunderground v.1.15,2013-08-25 12:30:00,
2013-08-25 06:10:00,69.0,47.4,29.79,ESE,123,0.0,7.0,46,0.00,,,0.00,0,Wunderground v.1.15,2013-08-25 13:10:00,
2013-08-25 06:20:00,69.1,47.4,29.79,ESE,123,0.0,7.0,46,0.00,,,0.00,0,Wunderground v.1.15,2013-08-25 13:20:00,
2013-08-25 06:29:00,69.4,48.3,29.79,ESE,123,0.0,7.0,47,0.00,,,0.00,5,Wunderground v.1.15,2013-08-25 13:29:00,
2013-08-25 06:40:00,69.6,49.0,29.80,ESE,123,0.0,7.0,48,0.00,,,0.00,7,Wunderground v.1.15,2013-08-25 13:40:00,
2013-08-25 06:49:00,69.5,48.9,29.80,ESE,123,0.0,7.0,48,0.00,,,0.00,11,Wunderground v.1.15,2013-08-25 13:49:00,
2013-08-25 07:00:00,69.7,50.8,29.80,ESE,123,0.0,7.0,51,0.00,,,0.00,14,Wunderground v.1.15,2013-08-25 14:00:00,
2013-08-25 07:09:00,69.9,52.0,29.81,ESE,123,1.0,7.0,53,0.00,,,0.00,16,Wunderground v.1.15,2013-08-25 14:09:00,
2013-08-25 07:20:00,70.4,52.4,29.81,ESE,122,2.0,7.0,53,0.00,,,0.00,19,Wunderground v.1.15,2013-08-25 14:20:00,
2013-08-25 07:29:00,72.3,53.2,29.81,ESE,116,2.0,2.0,51,0.00,,,0.00,21,Wunderground v.1.15,2013-08-25 14:29:00,
2013-08-25 07:40:00,73.2,52.9,29.81,ESE,121,1.0,7.0,49,0.00,,,0.00,23,Wunderground v.1.15,2013-08-25 14:40:00,
2013-08-25 07:49:00,73.3,53.0,29.81,ESE,121,0.0,7.0,49,0.00,,,0.00,25,Wunderground v.1.15,2013-08-25 14:49:00,
2013-08-25 08:00:00,73.5,52.6,29.81,ESE,121,0.0,7.0,48,0.00,,,0.00,26,Wunderground v.1.15,2013-08-25 15:00:00,
2013-08-25 08:09:00,74.3,53.3,29.82,WSW,250,0.0,7.0,48,0.00,,,0.00,28,Wunderground v.1.15,2013-08-25 15:09:00,
2013-08-25 08:20:00,76.5,53.6,29.81,South,169,2.0,7.0,45,0.00,,,0.00,30,Wunderground v.1.15,2013-08-25 15:20:00,
2013-08-25 08:30:00,77.4,53.8,29.82,SSE,149,3.0,7.0,44,0.00,,,0.00,32,Wunderground v.1.15,2013-08-25 15:30:00,
2013-08-25 08:40:00,77.4,51.9,29.82,SSW,195,3.0,7.0,41,0.00,,,0.00,33,Wunderground v.1.15,2013-08-25 15:40:00,
2013-08-25 08:50:00,77.3,51.8,29.82,ESE,115,2.0,2.0,41,0.00,,,0.00,35,Wunderground v.1.15,2013-08-25 15:50:00,
2013-08-25 08:59:00,77.5,49.9,29.82,SSE,167,3.0,3.0,38,0.00,,,0.00,39,Wunderground v.1.15,2013-08-25 15:59:00,
2013-08-25 09:10:00,78.0,51.0,29.82,SSE,166,3.0,7.0,39,0.00,,,0.00,60,Wunderground v.1.15,2013-08-25 16:10:00,
2013-08-25 09:19:00,79.3,52.9,29.82,South,169,3.0,7.0,40,0.00,,,0.00,536,Wunderground v.1.15,2013-08-25 16:19:00,
2013-08-25 09:30:00,80.8,54.9,29.82,ESE,117,3.0,7.0,41,0.00,,,0.00,570,Wunderground v.1.15,2013-08-25 16:30:00,
2013-08-25 09:39:00,81.9,57.2,29.82,SE,124,4.0,4.0,43,0.00,,,0.00,599,Wunderground v.1.15,2013-08-25 16:39:00,
2013-08-25 09:50:00,82.6,57.8,29.83,South,169,4.0,7.0,43,0.00,,,0.00,629,Wunderground v.1.15,2013-08-25 16:50:00,
2013-08-25 09:59:00,82.9,58.7,29.83,ESE,116,6.0,6.0,44,0.00,,,0.00,657,Wunderground v.1.15,2013-08-25 16:59:00,
2013-08-25 10:10:00,83.2,59.0,29.83,SSE,153,5.0,5.0,44,0.00,,,0.00,686,Wunderground v.1.15,2013-08-25 17:10:00,
2013-08-25 10:19:00,83.7,59.5,29.83,SSE,152,5.0,7.0,44,0.00,,,0.00,708,Wunderground v.1.15,2013-08-25 17:19:00,
2013-08-25 10:30:00,83.8,60.2,29.83,SE,132,6.0,7.0,45,0.00,,,0.00,729,Wunderground v.1.15,2013-08-25 17:30:00,
2013-08-25 10:39:00,84.0,59.7,29.83,SSE,165,6.0,9.0,44,0.00,,,0.00,752,Wunderground v.1.15,2013-08-25 17:39:00,
2013-08-25 10:50:00,84.6,60.9,29.83,SE,134,6.0,7.0,45,0.00,,,0.00,772,Wunderground v.1.15,2013-08-25 17:50:00,
2013-08-25 10:59:00,84.6,60.9,29.83,SE,140,7.0,7.0,45,0.00,,,0.00,791,Wunderground v.1.15,2013-08-25 17:59:00,
2013-08-25 11:10:00,85.7,61.3,29.83,East,87,5.0,11.0,44,0.00,,,0.00,810,Wunderground v.1.15,2013-08-25 18:10:00,
2013-08-25 11:20:00,85.5,61.7,29.83,East,96,7.0,7.0,45,0.00,,,0.00,831,Wunderground v.1.15,2013-08-25 18:20:00,
2013-08-25 11:30:00,86.0,61.5,29.83,SE,136,5.0,9.0,44,0.00,,,0.00,842,Wunderground v.1.15,2013-08-25 18:30:00,
2013-08-25 11:40:00,86.5,62.0,29.82,SE,145,5.0,7.0,44,0.00,,,0.00,860,Wunderground v.1.15,2013-08-25 18:40:00,
2013-08-25 11:49:00,86.5,62.0,29.82,SSE,155,6.0,7.0,44,0.00,,,0.00,870,Wunderground v.1.15,2013-08-25 18:49:00,
2013-08-25 12:00:00,86.5,61.3,29.82,SE,131,8.0,8.0,43,0.00,,,0.00,874,Wunderground v.1.15,2013-08-25 19:00:00,
2013-08-25 12:09:00,87.4,61.5,29.82,SSE,150,5.0,5.0,42,0.00,,,0.00,886,Wunderground v.1.15,2013-08-25 19:09:00,
2013-08-25 12:20:00,87.7,61.1,29.82,SE,134,6.0,6.0,41,0.00,,,0.00,893,Wunderground v.1.15,2013-08-25 19:20:00,
2013-08-25 12:29:00,88.7,60.6,29.81,South,175,6.0,7.0,39,0.00,,,0.00,911,Wunderground v.1.15,2013-08-25 19:29:00,
2013-08-25 12:40:00,88.6,61.2,29.81,East,85,6.0,7.0,40,0.00,,,0.00,905,Wunderground v.1.15,2013-08-25 19:40:00,
2013-08-25 12:49:00,88.0,60.7,29.81,SE,138,7.0,7.0,40,0.00,,,0.00,904,Wunderground v.1.15,2013-08-25 19:49:00,
2013-08-25 13:00:00,87.8,59.0,29.81,SE,124,6.0,6.0,38,0.00,,,0.00,907,Wunderground v.1.15,2013-08-25 20:00:00,
2013-08-25 13:10:00,88.5,59.7,29.81,SE,141,7.0,7.0,38,0.00,,,0.00,896,Wunderground v.1.15,2013-08-25 20:10:00,
2013-08-25 13:19:00,89.2,58.0,29.81,SSE,149,5.0,7.0,35,0.00,,,0.00,898,Wunderground v.1.15,2013-08-25 20:19:00,
2013-08-25 13:30:00,88.8,55.1,29.81,SE,134,6.0,7.0,32,0.00,,,0.00,900,Wunderground v.1.15,2013-08-25 20:30:00,
2013-08-25 13:39:00,88.9,56.1,29.81,SSE,151,6.0,7.0,33,0.00,,,0.00,884,Wunderground v.1.15,2013-08-25 20:39:00,
2013-08-25 13:50:00,89.3,52.9,29.81,South,175,6.0,10.0,29,0.00,,,0.00,877,Wunderground v.1.15,2013-08-25 20:50:00,
2013-08-25 13:59:00,89.1,50.8,29.81,South,182,7.0,10.0,27,0.00,,,0.00,870,Wunderground v.1.15,2013-08-25 20:59:00,
2013-08-25 14:10:00,89.6,55.0,29.81,ESE,116,5.0,5.0,31,0.00,,,0.00,853,Wunderground v.1.15,2013-08-25 21:10:00,
2013-08-25 14:20:00,89.5,54.0,29.80,SE,144,5.0,5.0,30,0.00,,,0.00,840,Wunderground v.1.15,2013-08-25 21:20:00,
2013-08-25 14:30:00,89.6,51.2,29.80,SE,144,5.0,7.0,27,0.00,,,0.00,824,Wunderground v.1.15,2013-08-25 21:30:00,
2013-08-25 14:40:00,90.3,47.5,29.80,SSE,160,6.0,6.0,23,0.00,,,0.00,807,Wunderground v.1.15,2013-08-25 21:40:00,
2013-08-25 14:50:00,90.5,49.9,29.80,SSE,151,5.0,9.0,25,0.00,,,0.00,786,Wunderground v.1.15,2013-08-25 21:50:00,
2013-08-25 15:00:00,91.0,50.3,29.80,ESE,122,5.0,7.0,25,0.00,,,0.00,768,Wunderground v.1.15,2013-08-25 22:00:00,
2013-08-25 15:10:00,90.8,47.9,29.79,SSE,157,5.0,7.0,23,0.00,,,0.00,745,Wunderground v.1.15,2013-08-25 22:10:00,
2013-08-25 15:20:00,90.2,47.4,29.79,SSE,150,6.0,6.0,23,0.00,,,0.00,721,Wunderground v.1.15,2013-08-25 22:20:00,
2013-08-25 15:30:00,90.5,48.8,29.79,ESE,118,5.0,9.0,24,0.00,,,0.00,693,Wunderground v.1.15,2013-08-25 22:30:00,
2013-08-25 15:40:00,90.8,47.9,29.79,SSE,151,5.0,7.0,23,0.00,,,0.00,671,Wunderground v.1.15,2013-08-25 22:40:00,
2013-08-25 15:50:00,90.5,47.6,29.78,South,169,5.0,7.0,23,0.00,,,0.00,643,Wunderground v.1.15,2013-08-25 22:50:00,
2013-08-25 16:00:00,91.0,48.1,29.78,SE,133,5.0,5.0,23,0.00,,,0.00,615,Wunderground v.1.15,2013-08-25 23:00:00,
2013-08-25 16:09:00,91.0,46.9,29.78,South,172,5.0,5.0,22,0.00,,,0.00,592,Wunderground v.1.15,2013-08-25 23:09:00,
2013-08-25 16:20:00,90.7,44.1,29.78,East,94,5.0,5.0,20,0.00,,,0.00,559,Wunderground v.1.15,2013-08-25 23:20:00,
2013-08-25 16:29:00,90.6,44.0,29.78,SE,142,5.0,5.0,20,0.00,,,0.00,527,Wunderground v.1.15,2013-08-25 23:29:00,
2013-08-25 16:40:00,90.7,44.1,29.78,East,93,5.0,7.0,20,0.00,,,0.00,494,Wunderground v.1.15,2013-08-25 23:40:00,
2013-08-25 16:49:00,91.0,43.0,29.78,SE,142,5.0,7.0,19,0.00,,,0.00,462,Wunderground v.1.15,2013-08-25 23:49:00,
2013-08-25 17:00:00,90.2,46.2,29.78,SE,146,5.0,5.0,22,0.00,,,0.00,432,Wunderground v.1.15,2013-08-26 00:00:00,
2013-08-25 17:10:00,89.9,48.3,29.78,East,87,5.0,7.0,24,0.00,,,0.00,396,Wunderground v.1.15,2013-08-26 00:10:00,
2013-08-25 17:20:00,88.9,47.4,29.78,South,173,6.0,7.0,24,0.00,,,0.00,366,Wunderground v.1.15,2013-08-26 00:20:00,
2013-08-25 17:30:00,88.9,49.6,29.78,ESE,121,4.0,4.0,26,0.00,,,0.00,329,Wunderground v.1.15,2013-08-26 00:30:00,
2013-08-25 17:40:00,87.8,49.7,29.78,East,91,6.0,7.0,27,0.00,,,0.00,294,Wunderground v.1.15,2013-08-26 00:40:00,
2013-08-25 17:50:00,87.1,50.0,29.78,SSE,161,6.0,6.0,28,0.00,,,0.00,260,Wunderground v.1.15,2013-08-26 00:50:00,
2013-08-25 18:00:00,86.8,48.8,29.78,SSE,160,5.0,7.0,27,0.00,,,0.00,221,Wunderground v.1.15,2013-08-26 01:00:00,
2013-08-25 18:10:00,86.2,47.3,29.79,SE,134,5.0,7.0,26,0.00,,,0.00,179,Wunderground v.1.15,2013-08-26 01:10:00,
2013-08-25 18:20:00,85.4,46.6,29.78,SSE,149,5.0,11.0,26,0.00,,,0.00,137,Wunderground v.1.15,2013-08-26 01:20:00,
2013-08-25 18:30:00,84.8,46.1,29.79,SE,125,5.0,5.0,26,0.00,,,0.00,102,Wunderground v.1.15,2013-08-26 01:30:00,
2013-08-25 18:39:00,83.9,44.3,29.79,East,93,6.0,7.0,25,0.00,,,0.00,67,Wunderground v.1.15,2013-08-26 01:39:00,
2013-08-25 18:50:00,82.9,44.5,29.80,SE,146,6.0,6.0,26,0.00,,,0.00,37,Wunderground v.1.15,2013-08-26 01:50:00,
2013-08-25 18:59:00,82.1,48.5,29.80,SE,144,5.0,9.0,31,0.00,,,0.00,19,Wunderground v.1.15,2013-08-26 01:59:00,
2013-08-25 19:10:00,81.0,50.0,29.80,ESE,123,5.0,5.0,34,0.00,,,0.00,11,Wunderground v.1.15,2013-08-26 02:10:00,
2013-08-25 19:19:00,79.9,49.8,29.80,ESE,115,5.0,5.0,35,0.00,,,0.00,7,Wunderground v.1.15,2013-08-26 02:19:00,
2013-08-25 19:30:00,78.9,49.7,29.81,ESE,116,4.0,4.0,36,0.00,,,0.00,0,Wunderground v.1.15,2013-08-26 02:30:00,
2013-08-25 19:40:00,78.1,50.4,29.81,ESE,118,4.0,4.0,38,0.00,,,0.00,0,Wunderground v.1.15,2013-08-26 02:40:00,
2013-08-25 19:50:00,77.9,50.2,29.81,ESE,103,3.0,7.0,38,0.00,,,0.00,0,Wunderground v.1.15,2013-08-26 02:50:00,
2013-08-25 20:00:00,78.0,48.9,29.82,East,96,3.0,3.0,36,0.00,,,0.00,0,Wunderground v.1.15,2013-08-26 03:00:00,
2013-08-25 20:10:00,77.6,49.3,29.82,SE,128,4.0,4.0,37,0.00,,,0.00,0,Wunderground v.1.15,2013-08-26 03:10:00,
2013-08-25 20:20:00,76.8,49.3,29.82,ESE,120,5.0,7.0,38,0.00,,,0.00,0,Wunderground v.1.15,2013-08-26 03:20:00,
2013-08-25 20:30:00,75.9,49.8,29.83,East,96,5.0,5.0,40,0.00,,,0.00,0,Wunderground v.1.15,2013-08-26 03:30:00,
2013-08-25 20:40:00,74.8,50.8,29.83,ESE,111,4.0,7.0,43,0.00,,,0.00,0,Wunderground v.1.15,2013-08-26 03:40:00,
2013-08-25 20:50:00,73.7,50.4,29.84,ESE,122,4.0,7.0,44,0.00,,,0.00,0,Wunderground v.1.15,2013-08-26 03:50:00,
2013-08-25 21:00:00,73.4,50.2,29.84,East,97,4.0,7.0,44,0.00,,,0.00,0,Wunderground v.1.15,2013-08-26 04:00:00,
2013-08-25 21:10:00,73.3,49.4,29.84,ESE,119,2.0,2.0,43,0.00,,,0.00,0,Wunderground v.1.15,2013-08-26 04:10:00,
2013-08-25 21:20:00,73.5,49.6,29.84,SE,134,2.0,7.0,43,0.00,,,0.00,0,Wunderground v.1.15,2013-08-26 04:20:00,
2013-08-25 21:29:00,73.4,48.9,29.85,SE,131,0.0,7.0,42,0.00,,,0.00,0,Wunderground v.1.15,2013-08-26 04:29:00,
2013-08-25 21:40:00,73.0,49.2,29.85,SE,130,0.0,7.0,43,0.00,,,0.00,0,Wunderground v.1.15,2013-08-26 04:40:00,
2013-08-25 21:49:00,72.6,48.8,29.85,SE,130,0.0,7.0,43,0.00,,,0.00,0,Wunderground v.1.15,2013-08-26 04:49:00,
2013-08-25 22:00:00,72.4,49.3,29.85,SE,131,0.0,7.0,44,0.00,,,0.00,0,Wunderground v.1.15,2013-08-26 05:00:00,
2013-08-25 22:09:00,72.1,49.0,29.85,SE,131,0.0,7.0,44,0.00,,,0.00,0,Wunderground v.1.15,2013-08-26 05:09:00,
2013-08-25 22:20:00,71.9,48.2,29.85,SE,131,0.0,7.0,43,0.00,,,0.00,0,Wunderground v.1.15,2013-08-26 05:20:00,
2013-08-25 22:30:00,71.8,48.1,29.85,SE,131,0.0,7.0,43,0.00,,,0.00,0,Wunderground v.1.15,2013-08-26 05:30:00,
2013-08-25 22:40:00,71.9,48.2,29.85,SE,131,0.0,7.0,43,0.00,,,0.00,0,Wunderground v.1.15,2013-08-26 05:40:00,
2013-08-25 22:50:00,73.0,49.2,29.84,SE,126,1.0,1.0,43,0.00,,,0.00,0,Wunderground v.1.15,2013-08-26 05:50:00,
2013-08-25 23:10:00,72.6,48.8,29.84,SE,126,0.0,7.0,43,0.00,,,0.00,0,Wunderground v.1.15,2013-08-26 06:10:00,
2013-08-25 23:20:00,72.1,48.4,29.84,SE,126,0.0,7.0,43,0.00,,,0.00,0,Wunderground v.1.15,2013-08-26 06:20:00,
2013-08-25 23:29:00,71.9,47.6,29.84,SE,126,0.0,7.0,42,0.00,,,0.00,0,Wunderground v.1.15,2013-08-26 06:29:00,
2013-08-25 23:40:00,72.0,47.6,29.84,SE,126,0.0,7.0,42,0.00,,,0.00,0,Wunderground v.1.15,2013-08-26 06:40:00,
2013-08-25 23:49:00,71.9,46.9,29.84,SE,126,0.0,7.0,41,0.00,,,0.00,0,Wunderground v.1.15,2013-08-26 06:49:00,